Time;durP1;ratioP1;P1;durP2;ratioP2;P2;SDS_P1;SDS_P2;PMS_P1;PMS_P2;Temp;Humidity;BMP_temperature;BMP_pressure;BME280_temperature;BME280_humidity;BME280_pressure;Samples;Min_cycle;Max_cycle;Signal;HPM_P1;HPM_P2
2024/01/25 00:00:50;;;;;;;27.63;20.25;;;25.30;99.90;;;;;;5033163;28;20041;-68
2024/01/25 00:03:17;;;;;;;35.83;19.92;;;25.40;99.90;;;;;;5031775;28;20025;-68
2024/01/25 00:05:44;;;;;;;21.15;17.95;;;25.40;99.90;;;;;;5024402;28;20443;-69
2024/01/25 00:08:10;;;;;;;77.90;55.65;;;25.40;99.90;;;;;;5028640;28;20045;-67
2024/01/25 00:10:37;;;;;;;102.97;75.85;;;25.40;99.90;;;;;;5018285;28;20540;-67
2024/01/25 00:13:03;;;;;;;75.72;55.65;;;25.30;99.90;;;;;;5015840;28;20036;-67
2024/01/25 00:15:30;;;;;;;95.22;72.85;;;25.30;99.90;;;;;;5015825;28;20018;-68
2024/01/25 00:17:56;;;;;;;70.20;58.65;;;25.40;99.90;;;;;;5016052;28;20018;-67
2024/01/25 00:20:23;;;;;;;122.25;96.93;;;25.40;99.90;;;;;;5015421;28;20061;-67
2024/01/25 00:22:50;;;;;;;98.43;78.75;;;25.40;99.90;;;;;;5015336;28;20029;-68
2024/01/25 00:25:16;;;;;;;154.10;121.15;;;25.40;99.90;;;;;;5015330;28;20100;-66
2024/01/25 00:27:44;;;;;;;91.55;66.13;;;25.40;99.90;;;;;;5016930;28;20546;-69
2024/01/25 00:30:11;;;;;;;198.07;135.82;;;25.50;99.90;;;;;;5014757;28;20054;-65
2024/01/25 00:32:37;;;;;;;130.77;103.65;;;25.60;99.90;;;;;;5014313;28;20026;-66
2024/01/25 00:35:05;;;;;;;129.32;99.57;;;25.60;99.90;;;;;;5017452;28;20025;-65
2024/01/25 00:37:31;;;;;;;154.27;121.35;;;25.50;99.90;;;;;;5035218;28;20030;-65
2024/01/25 00:39:58;;;;;;;97.93;78.28;;;25.50;99.90;;;;;;5035040;28;20033;-64
2024/01/25 00:42:25;;;;;;;62.33;52.35;;;25.60;99.90;;;;;;5034740;28;20017;-66
2024/01/25 00:44:52;;;;;;;56.70;46.92;;;25.60;99.90;;;;;;5034078;28;20433;-64
2024/01/25 00:47:19;;;;;;;51.88;45.67;;;25.60;99.90;;;;;;5033598;28;20037;-65
2024/01/25 00:49:46;;;;;;;91.25;80.28;;;25.50;99.90;;;;;;5033558;28;20399;-64
2024/01/25 00:52:13;;;;;;;49.42;44.03;;;25.50;99.90;;;;;;5033977;28;20418;-65
2024/01/25 00:54:39;;;;;;;47.25;39.97;;;25.50;99.90;;;;;;5034657;28;20034;-66
2024/01/25 00:57:06;;;;;;;41.40;37.13;;;25.50;99.90;;;;;;5033425;28;20413;-66
2024/01/25 00:59:33;;;;;;;53.28;42.15;;;25.50;99.90;;;;;;5034292;28;20164;-66
2024/01/25 01:02:02;;;;;;;43.15;38.13;;;25.50;99.90;;;;;;5033819;28;20029;-65
2024/01/25 01:04:29;;;;;;;71.38;62.40;;;25.50;99.90;;;;;;5033755;28;20049;-65
2024/01/25 01:06:56;;;;;;;52.63;45.80;;;25.50;99.90;;;;;;5034409;28;20051;-66
2024/01/25 01:09:23;;;;;;;49.83;44.17;;;25.50;99.90;;;;;;5034273;28;20048;-66
2024/01/25 01:11:51;;;;;;;51.30;45.25;;;25.60;99.90;;;;;;5034213;28;20083;-67
2024/01/25 01:14:18;;;;;;;65.22;58.10;;;25.60;99.90;;;;;;5034350;28;20105;-65
2024/01/25 01:16:44;;;;;;;69.78;57.38;;;25.60;99.90;;;;;;5033956;28;20017;-65
2024/01/25 01:19:11;;;;;;;49.15;43.95;;;25.60;99.90;;;;;;5034114;28;20475;-66
2024/01/25 01:21:38;;;;;;;62.67;51.38;;;25.60;99.90;;;;;;5033476;28;20064;-66
2024/01/25 01:24:05;;;;;;;85.40;65.00;;;25.60;99.90;;;;;;5033879;28;20029;-66
2024/01/25 01:26:31;;;;;;;56.80;46.40;;;25.60;99.90;;;;;;5033634;28;20057;-65
2024/01/25 01:28:58;;;;;;;42.22;35.35;;;25.60;99.90;;;;;;5033879;28;20083;-65
2024/01/25 01:31:24;;;;;;;52.60;42.67;;;25.60;99.90;;;;;;5032632;28;20152;-66
2024/01/25 01:33:51;;;;;;;57.67;51.28;;;25.80;99.90;;;;;;5033761;28;20156;-66
2024/01/25 01:36:17;;;;;;;51.72;46.10;;;25.70;99.90;;;;;;5033839;28;20080;-66
2024/01/25 01:38:44;;;;;;;53.30;47.70;;;25.70;99.90;;;;;;5033077;28;20032;-66
2024/01/25 01:41:12;;;;;;;473.20;356.55;;;25.70;99.90;;;;;;5033903;28;20045;-66
2024/01/25 01:43:39;;;;;;;76.97;61.63;;;25.80;99.90;;;;;;5033826;28;20036;-66
2024/01/25 01:46:12;;;;;;;48.25;42.67;;;25.80;99.90;;;;;;5034078;28;20033;-65
2024/01/25 01:48:40;;;;;;;59.78;47.38;;;25.80;99.90;;;;;;5034043;28;20033;-66
2024/01/25 01:51:07;;;;;;;55.72;47.33;;;25.80;99.90;;;;;;5033962;28;20222;-66
2024/01/25 01:53:36;;;;;;;53.78;48.25;;;25.90;99.90;;;;;;5033836;28;20517;-65
2024/01/25 01:56:03;;;;;;;54.90;46.72;;;25.90;99.90;;;;;;5032818;28;20040;-66
2024/01/25 01:58:32;;;;;;;53.00;47.30;;;25.90;99.90;;;;;;5016899;28;20026;-66
2024/01/25 02:01:00;;;;;;;47.58;42.70;;;25.90;99.90;;;;;;5028999;28;20033;-66
2024/01/25 02:03:26;;;;;;;47.20;42.40;;;25.90;99.90;;;;;;5029896;28;20026;-66
2024/01/25 02:05:53;;;;;;;53.75;47.80;;;25.90;99.90;;;;;;5022553;28;20446;-66
2024/01/25 02:08:20;;;;;;;54.95;49.08;;;25.90;99.90;;;;;;5013681;28;20030;-65
2024/01/25 02:10:46;;;;;;;61.70;55.03;;;25.90;99.90;;;;;;5013774;28;20026;-66
2024/01/25 02:13:12;;;;;;;95.57;83.40;;;25.90;99.90;;;;;;5013775;28;20030;-65
2024/01/25 02:15:39;;;;;;;65.93;59.05;;;25.90;99.90;;;;;;5013480;28;20033;-66
2024/01/25 02:18:06;;;;;;;62.67;56.20;;;25.90;99.90;;;;;;5013626;28;20105;-66
2024/01/25 02:20:33;;;;;;;58.33;52.35;;;25.90;99.90;;;;;;5013836;28;20421;-66
2024/01/25 02:22:59;;;;;;;61.55;54.95;;;26.00;99.90;;;;;;5013368;28;20025;-65
2024/01/25 02:25:26;;;;;;;104.00;91.45;;;26.00;99.90;;;;;;5023898;28;20021;-66
2024/01/25 02:27:52;;;;;;;133.57;112.38;;;26.00;99.90;;;;;;5014417;28;20518;-65
2024/01/25 02:30:19;;;;;;;72.63;65.53;;;26.10;99.90;;;;;;5013554;28;20105;-65
2024/01/25 02:32:45;;;;;;;76.88;69.07;;;26.20;99.90;;;;;;5013629;28;20108;-67
2024/01/25 02:35:12;;;;;;;77.50;69.70;;;26.20;99.90;;;;;;5013718;28;20057;-66
2024/01/25 02:37:38;;;;;;;76.45;69.22;;;26.10;99.90;;;;;;5013502;28;20488;-65
2024/01/25 02:40:05;;;;;;;78.57;70.95;;;26.20;99.90;;;;;;5013456;28;20061;-65
2024/01/25 02:42:32;;;;;;;73.45;66.35;;;26.20;99.90;;;;;;5013459;28;20501;-65
2024/01/25 02:44:58;;;;;;;69.38;62.30;;;26.30;99.90;;;;;;5013400;28;20026;-65
2024/01/25 02:47:25;;;;;;;77.47;70.18;;;26.30;99.90;;;;;;5013255;28;20057;-66
2024/01/25 02:49:51;;;;;;;86.28;78.15;;;26.30;99.90;;;;;;5013284;28;20387;-67
2024/01/25 02:52:18;;;;;;;79.28;71.63;;;26.40;99.90;;;;;;5018546;28;20100;-68
2024/01/25 02:54:44;;;;;;;70.25;63.47;;;26.50;99.90;;;;;;5014902;28;20033;-67
2024/01/25 02:57:11;;;;;;;70.55;63.75;;;26.50;99.90;;;;;;5028968;28;20020;-66
2024/01/25 02:59:37;;;;;;;67.57;61.13;;;26.50;99.90;;;;;;5036041;28;20433;-67
2024/01/25 03:02:04;;;;;;;67.07;61.00;;;26.50;99.90;;;;;;5036723;28;20406;-66
2024/01/25 03:04:30;;;;;;;67.45;61.03;;;26.60;99.90;;;;;;5036879;28;20033;-66
2024/01/25 03:06:56;;;;;;;65.90;59.95;;;26.70;99.90;;;;;;5036721;28;20022;-67
2024/01/25 03:09:23;;;;;;;63.10;57.55;;;26.70;99.90;;;;;;5036806;28;20475;-67
2024/01/25 03:11:50;;;;;;;51.03;47.03;;;26.80;99.90;;;;;;5036627;28;20116;-66
2024/01/25 03:14:17;;;;;;;53.72;49.42;;;26.80;99.90;;;;;;5036756;28;20028;-66
2024/01/25 03:16:44;;;;;;;51.50;47.03;;;26.90;99.90;;;;;;5036407;28;20037;-66
2024/01/25 03:19:11;;;;;;;54.50;50.30;;;26.90;99.90;;;;;;5036406;28;20540;-67
2024/01/25 03:21:38;;;;;;;55.92;51.67;;;27.10;99.90;;;;;;5036357;28;20076;-67
2024/01/25 03:24:05;;;;;;;49.17;45.58;;;27.10;99.90;;;;;;5036340;28;20036;-66
2024/01/25 03:26:31;;;;;;;46.78;43.22;;;27.20;99.90;;;;;;5036248;28;20022;-66
2024/01/25 03:28:57;;;;;;;41.17;38.08;;;27.40;99.90;;;;;;5036191;28;20032;-66
2024/01/25 03:31:24;;;;;;;48.08;44.60;;;27.40;99.90;;;;;;5035919;28;20437;-65
2024/01/25 03:33:51;;;;;;;42.67;39.65;;;27.50;99.90;;;;;;5036220;28;20394;-66
2024/01/25 03:36:17;;;;;;;36.05;33.25;;;27.60;99.90;;;;;;5036357;28;20104;-67
2024/01/25 03:38:44;;;;;;;30.95;28.75;;;27.70;99.90;;;;;;5036072;28;20021;-66
2024/01/25 03:41:10;;;;;;;33.20;30.65;;;27.80;99.90;;;;;;5036225;28;20056;-67
2024/01/25 03:43:37;;;;;;;25.00;23.00;;;27.80;99.90;;;;;;5036235;28;20033;-67
2024/01/25 03:46:04;;;;;;;25.25;23.27;;;27.90;99.90;;;;;;5035945;28;20080;-67
2024/01/25 03:48:31;;;;;;;27.52;25.42;;;28.00;99.90;;;;;;5035798;28;20026;-66
2024/01/25 03:50:58;;;;;;;19.08;17.77;;;28.10;99.90;;;;;;5035870;28;20026;-67
2024/01/25 03:53:24;;;;;;;21.67;20.17;;;28.00;99.90;;;;;;5035793;28;20109;-67
2024/01/25 03:55:51;;;;;;;25.42;23.60;;;28.00;99.90;;;;;;5035782;28;20013;-67
2024/01/25 03:58:18;;;;;;;16.20;14.80;;;28.10;99.90;;;;;;5035761;28;20029;-67
2024/01/25 04:00:45;;;;;;;15.75;14.45;;;28.10;99.90;;;;;;5035725;28;20056;-68
2024/01/25 04:03:11;;;;;;;20.50;18.75;;;28.10;99.90;;;;;;5035736;28;20056;-68
2024/01/25 04:05:40;;;;;;;21.33;19.63;;;28.10;99.90;;;;;;5035624;28;20083;-68
2024/01/25 04:08:07;;;;;;;20.77;19.17;;;28.10;99.90;;;;;;5035561;28;20049;-68
2024/01/25 04:10:33;;;;;;;21.92;20.27;;;28.10;99.90;;;;;;5034462;28;20025;-68
2024/01/25 04:13:01;;;;;;;17.55;16.10;;;28.20;99.90;;;;;;5029493;28;20447;-68
2024/01/25 04:15:28;;;;;;;20.00;18.50;;;28.20;99.90;;;;;;5035524;28;20096;-67
2024/01/25 04:17:56;;;;;;;20.95;19.35;;;28.30;99.90;;;;;;5035112;28;20363;-67
2024/01/25 04:20:22;;;;;;;20.02;18.48;;;28.40;99.90;;;;;;5035354;28;20100;-67
2024/01/25 04:22:49;;;;;;;18.08;16.67;;;28.40;99.90;;;;;;5035404;28;20025;-67
2024/01/25 04:25:16;;;;;;;16.33;15.18;;;28.50;99.90;;;;;;5031991;28;20479;-67
2024/01/25 04:27:42;;;;;;;22.33;20.63;;;28.40;99.90;;;;;;5029709;28;20498;-67
2024/01/25 04:30:10;;;;;;;28.17;25.58;;;28.30;99.90;;;;;;5035304;28;20026;-66
2024/01/25 04:32:37;;;;;;;25.70;23.70;;;28.40;99.90;;;;;;5020666;28;20057;-66
2024/01/25 04:35:03;;;;;;;21.83;19.85;;;28.50;99.90;;;;;;5015757;28;20033;-66
2024/01/25 04:37:30;;;;;;;22.70;20.90;;;28.60;99.90;;;;;;5016405;28;20076;-67
2024/01/25 04:39:56;;;;;;;21.88;20.20;;;28.70;99.90;;;;;;5017377;28;20179;-66
2024/01/25 04:42:23;;;;;;;16.00;13.38;;;28.80;99.90;;;;;;5016608;28;20076;-66
2024/01/25 04:44:49;;;;;;;19.58;18.08;;;28.70;99.90;;;;;;5016798;28;20088;-66
2024/01/25 04:47:16;;;;;;;21.92;20.23;;;28.70;99.90;;;;;;5016005;28;20436;-66
2024/01/25 04:49:42;;;;;;;19.25;17.55;;;28.70;99.90;;;;;;5015323;28;20364;-66
2024/01/25 04:52:09;;;;;;;18.13;16.55;;;28.80;99.90;;;;;;5019461;28;20572;-66
2024/01/25 04:54:35;;;;;;;19.15;17.48;;;28.80;99.90;;;;;;5034324;28;20481;-66
2024/01/25 04:57:06;;;;;;;16.42;15.07;;;28.80;99.90;;;;;;5035371;28;20021;-66
2024/01/25 04:59:33;;;;;;;22.42;20.25;;;28.90;99.90;;;;;;5035175;28;20022;-67
2024/01/25 05:02:00;;;;;;;21.80;20.08;;;29.00;99.90;;;;;;5034801;28;20025;-67
2024/01/25 05:04:28;;;;;;;20.35;18.75;;;29.00;99.90;;;;;;5035091;28;20478;-67
2024/01/25 05:06:55;;;;;;;21.05;19.17;;;29.00;99.90;;;;;;5019177;28;20022;-67
2024/01/25 05:09:21;;;;;;;19.00;17.27;;;29.00;99.90;;;;;;5014898;28;20033;-67
2024/01/25 05:11:48;;;;;;;23.05;21.17;;;29.20;99.90;;;;;;5014768;28;20383;-67
2024/01/25 05:14:14;;;;;;;21.65;19.77;;;29.20;99.90;;;;;;5015038;28;20021;-67
2024/01/25 05:16:41;;;;;;;18.77;15.75;;;29.20;99.90;;;;;;5022252;28;20041;-67
2024/01/25 05:19:07;;;;;;;21.40;19.65;;;29.20;99.90;;;;;;5023716;28;20491;-66
2024/01/25 05:21:34;;;;;;;22.10;20.13;;;29.30;99.90;;;;;;5024253;28;20033;-68
2024/01/25 05:24:00;;;;;;;20.58;18.88;;;29.30;99.90;;;;;;5025564;28;20041;-67
2024/01/25 05:26:27;;;;;;;21.85;20.00;;;29.30;99.90;;;;;;5032361;28;20330;-67
2024/01/25 05:28:53;;;;;;;21.00;19.02;;;29.40;99.90;;;;;;5017611;28;20033;-68
2024/01/25 05:31:20;;;;;;;20.65;18.60;;;29.40;99.90;;;;;;5016408;28;20036;-65
2024/01/25 05:33:47;;;;;;;19.33;17.52;;;29.50;99.90;;;;;;5016563;28;20060;-68
2024/01/25 05:36:13;;;;;;;18.98;17.08;;;29.60;99.90;;;;;;5016162;28;20030;-68
2024/01/25 05:38:40;;;;;;;19.45;17.50;;;29.60;99.90;;;;;;5017156;28;20096;-68
2024/01/25 05:41:06;;;;;;;19.95;18.15;;;29.60;99.90;;;;;;5025201;28;20024;-68
2024/01/25 05:43:33;;;;;;;19.92;18.00;;;29.60;99.90;;;;;;5024357;28;20112;-68
2024/01/25 05:46:00;;;;;;;17.75;15.98;;;29.70;99.90;;;;;;5023146;28;20018;-68
2024/01/25 05:48:26;;;;;;;21.20;19.00;;;29.70;99.90;;;;;;5030621;28;20390;-67
2024/01/25 05:50:53;;;;;;;21.40;19.52;;;29.70;99.90;;;;;;5032827;28;20036;-68
2024/01/25 05:53:21;;;;;;;19.60;17.58;;;29.70;99.90;;;;;;5033513;28;20566;-67
2024/01/25 05:55:48;;;;;;;17.80;16.10;;;29.70;99.90;;;;;;5014459;28;20037;-68
2024/01/25 05:58:14;;;;;;;17.98;14.52;;;29.70;99.90;;;;;;5014823;28;20152;-66
2024/01/25 06:00:42;;;;;;;15.27;13.77;;;29.70;99.90;;;;;;5015103;28;20026;-65
2024/01/25 06:03:09;;;;;;;16.60;14.75;;;29.70;99.90;;;;;;5013931;28;20080;-67
2024/01/25 06:05:35;;;;;;;17.50;15.80;;;29.70;99.90;;;;;;5014190;28;20014;-67
2024/01/25 06:08:02;;;;;;;15.85;13.48;;;29.80;99.90;;;;;;5014694;28;20467;-66
2024/01/25 06:10:29;;;;;;;14.00;12.65;;;29.80;99.90;;;;;;5013859;28;20022;-65
2024/01/25 06:12:55;;;;;;;15.20;13.63;;;29.80;99.90;;;;;;5014046;28;20038;-68
2024/01/25 06:15:22;;;;;;;15.70;14.13;;;29.80;99.90;;;;;;5032464;28;20368;-67
2024/01/25 06:17:48;;;;;;;17.33;13.32;;;29.80;99.90;;;;;;5033700;28;20511;-66
2024/01/25 06:20:15;;;;;;;23.48;15.10;;;29.80;99.90;;;;;;5033531;28;20037;-68
2024/01/25 06:22:41;;;;;;;17.02;15.32;;;29.80;99.90;;;;;;5033802;28;20060;-67
2024/01/25 06:25:08;;;;;;;18.58;16.67;;;29.80;99.90;;;;;;5033964;28;20029;-67
2024/01/25 06:27:35;;;;;;;18.70;16.45;;;29.80;99.90;;;;;;5034186;28;20029;-67
2024/01/25 06:30:01;;;;;;;15.95;14.35;;;29.90;99.90;;;;;;5036166;28;20021;-66
2024/01/25 06:32:28;;;;;;;17.98;15.43;;;29.90;99.90;;;;;;5038325;28;20105;-67
2024/01/25 06:34:54;;;;;;;18.10;16.25;;;29.90;99.90;;;;;;5038528;28;20026;-67
2024/01/25 06:37:21;;;;;;;20.13;15.77;;;29.80;99.90;;;;;;5038411;28;20092;-67
2024/01/25 06:39:47;;;;;;;17.42;14.73;;;29.90;99.90;;;;;;5038583;28;20021;-66
2024/01/25 06:42:14;;;;;;;15.00;13.00;;;29.90;99.90;;;;;;5038412;28;20083;-67
2024/01/25 06:44:40;;;;;;;15.65;14.02;;;29.90;99.90;;;;;;5038595;28;20030;-67
2024/01/25 06:47:07;;;;;;;17.27;15.23;;;29.90;99.90;;;;;;5038000;28;20478;-67
2024/01/25 06:49:33;;;;;;;18.67;16.67;;;30.00;99.90;;;;;;5037564;28;20061;-68
2024/01/25 06:52:00;;;;;;;41.03;16.40;;;29.90;99.90;;;;;;5037745;28;20025;-66
2024/01/25 06:54:26;;;;;;;21.35;18.38;;;29.90;99.90;;;;;;5037322;28;20494;-67
2024/01/25 06:56:56;;;;;;;23.58;16.65;;;29.90;99.90;;;;;;5037798;28;20025;-66
2024/01/25 06:59:23;;;;;;;21.65;17.45;;;29.90;99.90;;;;;;5037877;28;20022;-67
2024/01/25 07:01:50;;;;;;;21.55;17.65;;;29.90;99.90;;;;;;5037791;28;20033;-66
2024/01/25 07:04:16;;;;;;;21.70;18.65;;;29.90;99.90;;;;;;5037818;28;20025;-68
2024/01/25 07:06:43;;;;;;;24.13;18.02;;;29.90;99.90;;;;;;5037699;28;20404;-67
2024/01/25 07:09:10;;;;;;;23.48;19.60;;;29.90;99.90;;;;;;5037698;28;20141;-65
2024/01/25 07:11:37;;;;;;;23.17;20.60;;;30.00;99.90;;;;;;5036547;28;20038;-66
2024/01/25 07:14:03;;;;;;;21.50;18.90;;;30.00;99.90;;;;;;5037133;28;20032;-66
2024/01/25 07:16:30;;;;;;;23.08;20.13;;;30.00;99.90;;;;;;5037066;28;20103;-66
2024/01/25 07:18:57;;;;;;;24.38;17.55;;;30.00;99.90;;;;;;5036799;28;20071;-66
2024/01/25 07:21:23;;;;;;;19.65;17.55;;;30.00;99.90;;;;;;5037743;28;20486;-66
2024/01/25 07:23:50;;;;;;;20.52;17.85;;;29.90;99.90;;;;;;5037476;28;20037;-66
2024/01/25 07:26:18;;;;;;;18.38;16.48;;;29.90;99.90;;;;;;5037279;28;20036;-65
2024/01/25 07:28:46;;;;;;;18.15;16.27;;;29.90;99.90;;;;;;5036911;28;20026;-66
2024/01/25 07:31:12;;;;;;;19.27;17.02;;;29.90;99.90;;;;;;5037076;28;20029;-66
2024/01/25 07:33:39;;;;;;;18.25;16.38;;;29.90;99.90;;;;;;5037131;28;20057;-66
2024/01/25 07:36:06;;;;;;;21.40;17.83;;;29.90;99.90;;;;;;5037206;28;20029;-64
2024/01/25 07:38:32;;;;;;;19.25;16.83;;;29.90;99.90;;;;;;5037255;28;20071;-63
2024/01/25 07:40:59;;;;;;;19.88;17.92;;;29.90;99.90;;;;;;5036379;28;20018;-64
2024/01/25 07:43:25;;;;;;;20.80;18.55;;;29.90;99.90;;;;;;5036176;28;20112;-64
2024/01/25 07:45:52;;;;;;;21.80;18.27;;;29.90;99.90;;;;;;5035916;28;20029;-63
2024/01/25 07:48:18;;;;;;;21.88;18.05;;;29.90;99.90;;;;;;5036071;28;20538;-65
2024/01/25 07:50:45;;;;;;;22.15;15.82;;;29.90;99.90;;;;;;5036180;28;20470;-64
2024/01/25 07:53:12;;;;;;;46.05;41.15;;;29.90;99.90;;;;;;5036050;28;20033;-66
2024/01/25 07:55:38;;;;;;;29.15;25.60;;;29.90;99.90;;;;;;5035758;28;20036;-65
2024/01/25 07:58:05;;;;;;;125.28;93.25;;;29.90;99.90;;;;;;5029557;28;20044;-65
2024/01/25 08:00:32;;;;;;;41.80;34.10;;;29.90;99.90;;;;;;5022397;28;20029;-66
2024/01/25 08:02:58;;;;;;;50.85;43.55;;;30.00;99.90;;;;;;5015593;28;20022;-66
2024/01/25 08:05:25;;;;;;;71.30;58.00;;;30.00;99.90;;;;;;5030198;28;20029;-65
2024/01/25 08:07:52;;;;;;;78.97;67.68;;;30.00;99.90;;;;;;5035311;28;20471;-66
2024/01/25 08:10:18;;;;;;;157.48;118.78;;;30.00;99.90;;;;;;5031709;28;20021;-65
2024/01/25 08:12:47;;;;;;;45.47;34.67;;;30.00;99.90;;;;;;5034981;28;20025;-65
2024/01/25 08:15:14;;;;;;;146.43;115.65;;;30.00;99.90;;;;;;5035061;28;20386;-66
2024/01/25 08:17:40;;;;;;;41.17;35.42;;;30.00;99.90;;;;;;5034919;28;20025;-65
2024/01/25 08:20:08;;;;;;;39.33;33.35;;;30.00;99.90;;;;;;5023352;28;20080;-66
2024/01/25 08:22:35;;;;;;;49.70;37.05;;;30.00;99.90;;;;;;5035368;28;20061;-66
2024/01/25 08:25:01;;;;;;;29.67;24.42;;;29.90;99.90;;;;;;5029399;28;20112;-66
2024/01/25 08:27:28;;;;;;;25.73;20.40;;;30.00;99.90;;;;;;5035519;28;20044;-66
2024/01/25 08:29:54;;;;;;;100.80;79.65;;;30.00;99.90;;;;;;5032176;28;20529;-66
2024/01/25 08:32:21;;;;;;;52.17;43.45;;;29.90;99.90;;;;;;5025994;28;20084;-67
2024/01/25 08:34:47;;;;;;;48.38;35.00;;;29.80;99.90;;;;;;5034975;28;20096;-66
2024/01/25 08:37:14;;;;;;;32.50;27.73;;;29.70;99.90;;;;;;5035008;28;20466;-66
2024/01/25 08:39:40;;;;;;;31.35;27.20;;;29.70;99.90;;;;;;5024577;28;20022;-67
2024/01/25 08:42:07;;;;;;;37.35;31.10;;;29.70;99.90;;;;;;5015160;28;20414;-65
2024/01/25 08:44:33;;;;;;;40.47;35.10;;;29.70;99.90;;;;;;5019804;28;20055;-66
2024/01/25 08:47:00;;;;;;;50.70;40.45;;;29.70;99.90;;;;;;5035811;28;20297;-69
2024/01/25 08:49:26;;;;;;;45.25;39.05;;;29.70;99.90;;;;;;5036372;28;20025;-66
2024/01/25 08:51:53;;;;;;;36.33;32.42;;;29.60;99.90;;;;;;5035117;28;20034;-66
2024/01/25 08:54:19;;;;;;;41.38;37.05;;;29.60;99.90;;;;;;5035377;28;20387;-66
2024/01/25 08:56:46;;;;;;;94.50;84.20;;;29.70;99.90;;;;;;5035302;28;20049;-65
2024/01/25 08:59:12;;;;;;;80.95;72.22;;;29.70;99.90;;;;;;5035209;28;20095;-65
2024/01/25 09:01:39;;;;;;;56.50;50.78;;;29.70;99.90;;;;;;5035110;28;20032;-66
2024/01/25 09:04:05;;;;;;;72.28;64.85;;;29.80;99.90;;;;;;5035451;28;20061;-65
2024/01/25 09:06:32;;;;;;;85.85;77.00;;;29.80;99.90;;;;;;5035362;28;20168;-65
2024/01/25 09:08:58;;;;;;;57.63;52.63;;;29.90;99.90;;;;;;5035154;28;20438;-65
2024/01/25 09:11:25;;;;;;;77.07;69.38;;;29.90;99.90;;;;;;5035133;28;20044;-67
2024/01/25 09:13:51;;;;;;;57.70;52.65;;;29.90;99.90;;;;;;5035384;28;20017;-66
2024/01/25 09:16:18;;;;;;;61.35;56.15;;;29.90;99.90;;;;;;5033023;28;20053;-69
2024/01/25 09:18:44;;;;;;;54.15;49.42;;;30.00;99.90;;;;;;5033882;28;20018;-68
2024/01/25 09:21:11;;;;;;;59.08;54.03;;;30.00;99.90;;;;;;5031943;28;20037;-67
2024/01/25 09:23:37;;;;;;;52.28;48.05;;;30.00;99.90;;;;;;5033775;28;20072;-66
2024/01/25 09:26:04;;;;;;;45.00;41.20;;;30.00;99.90;;;;;;5033930;28;20029;-67
2024/01/25 09:28:30;;;;;;;42.92;39.45;;;30.00;99.90;;;;;;5033793;28;20589;-67
2024/01/25 09:30:57;;;;;;;36.88;33.92;;;30.00;99.90;;;;;;5033940;28;20026;-68
2024/01/25 09:33:24;;;;;;;33.63;30.83;;;29.90;99.90;;;;;;5024089;28;20028;-68
2024/01/25 09:35:51;;;;;;;38.72;35.38;;;29.90;99.90;;;;;;5025964;28;20037;-68
2024/01/25 09:38:17;;;;;;;45.00;41.15;;;29.90;99.90;;;;;;5030428;28;20109;-67
2024/01/25 09:40:48;;;;;;;38.03;34.78;;;30.00;99.90;;;;;;5033778;28;21412;-67
2024/01/25 09:43:15;;;;;;;38.25;34.90;;;30.10;99.90;;;;;;5034144;28;20229;-68
2024/01/25 09:45:43;;;;;;;35.50;32.83;;;30.10;99.90;;;;;;5022112;28;20125;-67
2024/01/25 09:48:10;;;;;;;36.75;33.70;;;30.10;99.90;;;;;;5021524;28;20340;-67
2024/01/25 09:50:37;;;;;;;38.38;35.47;;;30.20;99.90;;;;;;5031397;28;20156;-67
2024/01/25 09:53:05;;;;;;;33.72;30.88;;;30.20;99.90;;;;;;5032378;28;20151;-66
2024/01/25 09:55:36;;;;;;;36.65;33.53;;;30.20;99.90;;;;;;5033936;28;20109;-66
2024/01/25 09:58:07;;;;;;;38.58;35.63;;;30.20;99.90;;;;;;5033860;28;20021;-66
2024/01/25 10:00:34;;;;;;;33.05;30.42;;;30.30;99.90;;;;;;5032820;28;20032;-66
2024/01/25 10:03:00;;;;;;;25.95;23.75;;;30.30;99.90;;;;;;5015328;28;20498;-67
2024/01/25 10:05:27;;;;;;;28.88;26.52;;;30.30;99.90;;;;;;5015186;28;20076;-66
2024/01/25 10:08:00;;;;;;;29.95;27.27;;;30.30;99.90;;;;;;5014919;28;20033;-68
2024/01/25 10:10:27;;;;;;;26.13;24.10;;;30.20;99.90;;;;;;5028526;28;20045;-67
2024/01/25 10:12:56;;;;;;;28.65;26.45;;;30.20;99.90;;;;;;5032335;28;20116;-66
2024/01/25 10:15:24;;;;;;;31.67;29.05;;;30.30;99.90;;;;;;5033191;28;20099;-67
2024/01/25 10:17:51;;;;;;;30.08;27.38;;;30.30;99.90;;;;;;5031234;28;20534;-67
2024/01/25 10:20:18;;;;;;;27.75;25.60;;;30.30;99.90;;;;;;5033100;28;20017;-66
2024/01/25 10:22:45;;;;;;;29.67;27.00;;;30.40;99.90;;;;;;5031229;28;20022;-67
2024/01/25 10:25:16;;;;;;;30.13;27.45;;;30.40;99.90;;;;;;5029029;28;20079;-67
2024/01/25 10:35:02;;;;;;;44.60;40.50;;;30.20;99.90;;;;;;5109175;27;20945;-66
2024/01/25 10:37:30;;;;;;;36.60;33.63;;;30.10;99.90;;;;;;5108182;28;20020;-67
2024/01/25 10:39:57;;;;;;;31.85;29.33;;;30.10;99.90;;;;;;5110752;28;20065;-67
2024/01/25 10:42:24;;;;;;;33.78;30.75;;;30.10;99.90;;;;;;5110499;28;20556;-68
2024/01/25 10:44:51;;;;;;;150.45;132.65;;;30.10;99.90;;;;;;5110717;28;20030;-68
2024/01/25 10:47:18;;;;;;;114.07;101.43;;;30.20;99.90;;;;;;5110564;28;20028;-68
2024/01/25 10:49:48;;;;;;;79.55;70.95;;;30.20;99.90;;;;;;5110369;28;20448;-68
2024/01/25 10:52:16;;;;;;;62.20;55.05;;;30.20;99.90;;;;;;5110468;28;20383;-68
2024/01/25 10:54:43;;;;;;;74.00;66.03;;;30.20;99.90;;;;;;5106931;28;20102;-68
2024/01/25 10:57:09;;;;;;;53.55;48.70;;;30.20;99.90;;;;;;5107990;28;20015;-70
2024/01/25 10:59:36;;;;;;;38.88;35.35;;;30.20;99.90;;;;;;5110775;28;20019;-69
2024/01/25 11:02:03;;;;;;;42.65;38.95;;;30.20;99.90;;;;;;5110095;28;20032;-69
2024/01/25 11:04:30;;;;;;;70.85;63.30;;;30.20;99.90;;;;;;5107807;28;20073;-68
2024/01/25 11:07:11;;;;;;;122.75;96.35;;;30.20;99.90;;;;;;5110384;28;20125;-68
2024/01/25 11:09:38;;;;;;;164.23;134.48;;;30.20;99.90;;;;;;5108635;28;20519;-66
2024/01/25 11:12:14;;;;;;;196.77;155.85;;;30.20;99.90;;;;;;5110242;28;20468;-68
2024/01/25 11:14:41;;;;;;;62.03;55.75;;;30.20;99.90;;;;;;5109985;28;20024;-67
2024/01/25 11:17:33;;;;;;;39.70;36.30;;;30.20;99.90;;;;;;5109377;28;20073;-68
2024/01/25 11:20:02;;;;;;;42.05;38.05;;;30.20;99.90;;;;;;5108835;28;20038;-68
2024/01/25 11:22:44;;;;;;;40.50;36.90;;;30.10;99.90;;;;;;5107350;28;20024;-68
2024/01/25 11:25:20;;;;;;;40.30;36.47;;;30.10;99.90;;;;;;5103866;28;20023;-67
2024/01/25 11:27:50;;;;;;;44.28;40.42;;;30.10;99.90;;;;;;5109622;28;20034;-68
2024/01/25 11:30:22;;;;;;;39.60;35.83;;;30.00;99.90;;;;;;5109832;28;20038;-67
2024/01/25 11:32:49;;;;;;;41.92;38.10;;;29.90;99.90;;;;;;5109465;27;20024;-68
2024/01/25 11:35:16;;;;;;;39.50;36.08;;;29.90;99.90;;;;;;5132844;27;20023;-68
2024/01/25 11:37:45;;;;;;;40.35;36.63;;;29.90;99.90;;;;;;5137804;27;20027;-68
2024/01/25 11:40:13;;;;;;;42.47;38.65;;;29.90;99.90;;;;;;5134742;27;20016;-68
2024/01/25 11:42:41;;;;;;;43.85;39.80;;;29.90;99.90;;;;;;5136384;27;20019;-66
2024/01/25 11:45:12;;;;;;;45.03;41.08;;;29.80;99.90;;;;;;5126467;27;20016;-67
2024/01/25 11:47:39;;;;;;;43.38;39.28;;;29.80;99.90;;;;;;5122950;27;20041;-68
2024/01/25 11:50:07;;;;;;;47.90;43.50;;;29.80;99.90;;;;;;5124188;27;20063;-68
2024/01/25 11:52:34;;;;;;;59.63;54.33;;;29.80;99.90;;;;;;5123118;27;20012;-68
2024/01/25 11:55:06;;;;;;;91.43;82.40;;;29.80;99.90;;;;;;5117682;27;20499;-69
2024/01/25 11:57:36;;;;;;;70.75;63.55;;;29.80;99.90;;;;;;5120597;27;20023;-67
2024/01/25 12:00:05;;;;;;;68.90;62.42;;;29.70;99.90;;;;;;5095202;27;20361;-69
2024/01/25 12:02:32;;;;;;;67.60;61.70;;;29.70;99.90;;;;;;5120515;27;20019;-70
2024/01/25 12:04:59;;;;;;;70.85;63.72;;;29.70;99.90;;;;;;5118637;27;20027;-68
2024/01/25 12:07:25;;;;;;;70.72;63.90;;;29.70;99.90;;;;;;5116622;27;20102;-67
2024/01/25 12:10:15;;;;;;;64.75;58.10;;;29.70;99.90;;;;;;5127942;27;20099;-67
2024/01/25 12:12:42;;;;;;;71.97;65.25;;;29.70;99.90;;;;;;5129050;27;20015;-67
2024/01/25 12:15:08;;;;;;;65.55;59.38;;;29.60;99.90;;;;;;5127953;27;20036;-66
2024/01/25 12:17:38;;;;;;;68.70;62.28;;;29.60;99.90;;;;;;5104691;27;20024;-67
2024/01/25 12:20:11;;;;;;;67.13;60.50;;;29.60;99.90;;;;;;5117987;27;20016;-67
2024/01/25 12:22:38;;;;;;;60.70;55.10;;;29.60;99.90;;;;;;5104542;27;20031;-68
2024/01/25 12:25:09;;;;;;;66.55;60.67;;;29.60;99.90;;;;;;5107089;27;20064;-67
2024/01/25 12:27:37;;;;;;;67.07;60.83;;;29.50;99.90;;;;;;5122985;27;20026;-68
2024/01/25 12:30:04;;;;;;;68.05;62.03;;;29.50;99.90;;;;;;5119560;27;20042;-67
2024/01/25 12:32:30;;;;;;;68.47;61.97;;;29.50;99.90;;;;;;5110567;27;20417;-68